Time;durP1;ratioP1;P1;durP2;ratioP2;P2;SDS_P1;SDS_P2;PMS_P1;PMS_P2;Temp;Humidity;BMP_temperature;BMP_pressure;BME280_temperature;BME280_humidity;BME280_pressure;Samples;Min_cycle;Max_cycle;Signal;HPM_P1;HPM_P2
2022/10/13 00:00:08;;;;;;;29.67;13.68;;;;;;;;;;7386406;19;20007;-68
2022/10/13 00:02:33;;;;;;;34.03;13.07;;;;;;;;;;7385235;19;20019;-69
2022/10/13 00:04:59;;;;;;;30.67;14.38;;;;;;;;;;7384762;19;19999;-69
2022/10/13 00:07:24;;;;;;;24.95;13.55;;;;;;;;;;7386177;19;20012;-69
2022/10/13 00:09:49;;;;;;;27.52;13.75;;;;;;;;;;7386052;19;20007;-69
2022/10/13 00:12:14;;;;;;;24.98;11.52;;;;;;;;;;7384781;19;20002;-69
2022/10/13 00:14:40;;;;;;;25.65;13.73;;;;;;;;;;7386008;19;19998;-69
2022/10/13 00:17:05;;;;;;;25.88;12.35;;;;;;;;;;7383600;19;19998;-69
2022/10/13 00:19:32;;;;;;;27.60;12.95;;;;;;;;;;7385691;19;20003;-69
2022/10/13 00:21:57;;;;;;;26.63;13.18;;;;;;;;;;7382552;19;20016;-69
2022/10/13 00:24:22;;;;;;;30.13;13.57;;;;;;;;;;7385627;19;20098;-68
2022/10/13 00:26:51;;;;;;;20.83;11.55;;;;;;;;;;7383907;19;20001;-68
2022/10/13 00:29:16;;;;;;;22.92;12.35;;;;;;;;;;7386130;19;20030;-68
2022/10/13 00:31:42;;;;;;;29.60;14.45;;;;;;;;;;7381018;19;20496;-68
2022/10/13 00:34:08;;;;;;;34.70;14.93;;;;;;;;;;7385333;19;20022;-70
2022/10/13 00:36:33;;;;;;;29.20;13.10;;;;;;;;;;7384385;19;20014;-68
2022/10/13 00:38:59;;;;;;;26.88;12.75;;;;;;;;;;7385399;19;20003;-69
2022/10/13 00:41:24;;;;;;;25.13;13.25;;;;;;;;;;7381144;19;20078;-69
2022/10/13 00:44:19;;;;;;;26.50;12.88;;;;;;;;;;7383361;19;19998;-69
2022/10/13 00:46:44;;;;;;;32.00;12.38;;;;;;;;;;7384954;19;20003;-69
2022/10/13 00:49:13;;;;;;;24.92;13.32;;;;;;;;;;7385972;19;20002;-69
2022/10/13 00:51:43;;;;;;;28.23;12.63;;;;;;;;;;7381897;19;20006;-67
2022/10/13 00:54:12;;;;;;;23.52;12.55;;;;;;;;;;7385053;19;20009;-69
2022/10/13 00:56:38;;;;;;;23.58;12.73;;;;;;;;;;7384163;19;20070;-68
2022/10/13 00:59:11;;;;;;;29.88;13.13;;;;;;;;;;7384842;19;20058;-68
2022/10/13 01:01:37;;;;;;;26.52;12.68;;;;;;;;;;7381467;19;20003;-68
2022/10/13 01:04:02;;;;;;;24.83;12.35;;;;;;;;;;7391949;19;20159;-70
2022/10/13 01:06:28;;;;;;;25.33;12.48;;;;;;;;;;7392219;19;19998;-69
2022/10/13 01:08:53;;;;;;;22.73;11.98;;;;;;;;;;7392252;19;20546;-68
2022/10/13 01:11:43;;;;;;;28.15;13.07;;;;;;;;;;7388796;19;20010;-68
2022/10/13 01:14:47;;;;;;;22.88;11.82;;;;;;;;;;7391799;19;19999;-69
2022/10/13 01:17:46;;;;;;;20.60;10.95;;;;;;;;;;7388253;19;19999;-68
2022/10/13 01:20:49;;;;;;;25.70;11.82;;;;;;;;;;7390881;19;20038;-68
2022/10/13 01:23:44;;;;;;;28.05;11.82;;;;;;;;;;7387477;19;20463;-69
2022/10/13 01:26:41;;;;;;;25.00;12.05;;;;;;;;;;7387759;19;20002;-68
2022/10/13 01:29:40;;;;;;;23.02;11.57;;;;;;;;;;7387738;19;20027;-68
2022/10/13 01:32:40;;;;;;;25.17;11.98;;;;;;;;;;7386190;19;20006;-67
2022/10/13 01:35:17;;;;;;;26.30;12.05;;;;;;;;;;7387271;19;20500;-68
2022/10/13 01:37:54;;;;;;;19.50;11.02;;;;;;;;;;7386101;19;20404;-69
2022/10/13 01:40:58;;;;;;;18.63;11.50;;;;;;;;;;7388503;19;20006;-68
2022/10/13 01:43:35;;;;;;;23.95;11.50;;;;;;;;;;7386368;19;20007;-68
2022/10/13 01:46:24;;;;;;;23.70;12.05;;;;;;;;;;7387524;19;20480;-67
2022/10/13 01:48:53;;;;;;;19.38;11.05;;;;;;;;;;7390714;19;20003;-68
2022/10/13 01:51:21;;;;;;;22.70;12.30;;;;;;;;;;7387744;19;20017;-69
2022/10/13 01:53:47;;;;;;;22.17;12.07;;;;;;;;;;7390653;19;20024;-68
2022/10/13 01:56:14;;;;;;;26.25;12.35;;;;;;;;;;7388835;19;20006;-68
2022/10/13 01:58:40;;;;;;;23.63;12.10;;;;;;;;;;7390754;19;20337;-69
2022/10/13 02:01:26;;;;;;;27.67;13.55;;;;;;;;;;7387881;19;20009;-69
2022/10/13 02:04:24;;;;;;;23.45;12.77;;;;;;;;;;7390683;19;20480;-68
2022/10/13 02:06:56;;;;;;;20.67;11.95;;;;;;;;;;7391229;19;20010;-69
2022/10/13 02:09:33;;;;;;;23.02;12.20;;;;;;;;;;7391795;19;20062;-69
2022/10/13 02:12:19;;;;;;;31.33;12.40;;;;;;;;;;7387578;19;20066;-69
2022/10/13 02:14:47;;;;;;;33.25;12.68;;;;;;;;;;7388124;19;20005;-69
2022/10/13 02:17:14;;;;;;;28.92;12.93;;;;;;;;;;7389663;19;20023;-69
2022/10/13 02:19:39;;;;;;;29.58;14.57;;;;;;;;;;7389954;19;20011;-69
2022/10/13 02:22:07;;;;;;;27.85;13.57;;;;;;;;;;7388733;19;19999;-67
2022/10/13 02:24:32;;;;;;;32.00;13.95;;;;;;;;;;7389915;19;20007;-69
2022/10/13 02:26:58;;;;;;;31.70;13.90;;;;;;;;;;7389882;19;20002;-68
2022/10/13 02:29:24;;;;;;;31.60;13.52;;;;;;;;;;7389478;19;19999;-70
2022/10/13 02:31:49;;;;;;;32.35;13.32;;;;;;;;;;7384408;19;20006;-69
2022/10/13 02:34:15;;;;;;;31.55;14.15;;;;;;;;;;7389472;19;20022;-69
2022/10/13 02:36:40;;;;;;;27.65;13.80;;;;;;;;;;7388500;19;20333;-69
2022/10/13 02:39:08;;;;;;;26.15;12.20;;;;;;;;;;7387406;19;20345;-68
2022/10/13 02:41:33;;;;;;;29.17;13.40;;;;;;;;;;7385622;19;20009;-68
2022/10/13 02:43:59;;;;;;;28.92;13.55;;;;;;;;;;7388565;19;19998;-69
2022/10/13 02:46:25;;;;;;;27.58;12.63;;;;;;;;;;7388885;19;19995;-69
2022/10/13 02:48:50;;;;;;;28.48;12.52;;;;;;;;;;7388550;19;20342;-69
2022/10/13 02:51:16;;;;;;;30.35;12.60;;;;;;;;;;7384371;19;20096;-68
2022/10/13 02:53:41;;;;;;;30.98;13.77;;;;;;;;;;7388576;19;19999;-67
2022/10/13 02:56:09;;;;;;;29.48;13.77;;;;;;;;;;7388292;19;20467;-68
2022/10/13 02:58:35;;;;;;;28.05;12.85;;;;;;;;;;7387518;19;20007;-67
2022/10/13 03:01:10;;;;;;;28.15;13.38;;;;;;;;;;7385990;19;20445;-67
2022/10/13 03:03:35;;;;;;;28.38;12.82;;;;;;;;;;7388231;19;19999;-69
2022/10/13 03:06:01;;;;;;;21.63;11.93;;;;;;;;;;7387924;19;20054;-69
2022/10/13 03:08:27;;;;;;;25.10;12.38;;;;;;;;;;7388252;19;20048;-69
2022/10/13 03:10:53;;;;;;;31.30;13.73;;;;;;;;;;7386330;19;20568;-67
2022/10/13 03:13:18;;;;;;;23.33;12.60;;;;;;;;;;7386258;19;19999;-68
2022/10/13 03:15:44;;;;;;;24.08;11.75;;;;;;;;;;7387797;19;19999;-68
2022/10/13 03:18:09;;;;;;;32.05;13.18;;;;;;;;;;7386239;19;19999;-68
2022/10/13 03:20:35;;;;;;;21.92;12.02;;;;;;;;;;7386978;19;20074;-68
2022/10/13 03:23:00;;;;;;;29.52;12.57;;;;;;;;;;7386272;19;20006;-68
2022/10/13 03:25:27;;;;;;;23.50;12.93;;;;;;;;;;7386841;19;20019;-68
2022/10/13 03:27:54;;;;;;;25.55;12.55;;;;;;;;;;7385517;19;20054;-68
2022/10/13 03:30:19;;;;;;;27.50;12.80;;;;;;;;;;7386687;19;20031;-68
2022/10/13 03:32:45;;;;;;;25.17;12.25;;;;;;;;;;7385834;19;19994;-69
2022/10/13 03:35:10;;;;;;;39.88;19.52;;;;;;;;;;7387319;19;20006;-69
2022/10/13 03:37:35;;;;;;;36.50;19.95;;;;;;;;;;7386095;19;20023;-69
2022/10/13 03:40:01;;;;;;;35.97;17.35;;;;;;;;;;7386733;19;20031;-69
2022/10/13 03:42:26;;;;;;;32.70;19.30;;;;;;;;;;7385985;19;20002;-69
2022/10/13 03:44:51;;;;;;;32.42;18.42;;;;;;;;;;7387070;19;19998;-69
2022/10/13 03:47:17;;;;;;;28.15;15.35;;;;;;;;;;7383658;19;20651;-68
2022/10/13 03:49:42;;;;;;;27.98;13.65;;;;;;;;;;7386420;19;19998;-69
2022/10/13 03:52:08;;;;;;;26.95;12.98;;;;;;;;;;7387063;19;20375;-68
2022/10/13 03:54:33;;;;;;;28.17;12.55;;;;;;;;;;7383049;19;20095;-70
2022/10/13 03:56:58;;;;;;;24.80;11.52;;;;;;;;;;7380104;19;20006;-69
2022/10/13 03:59:24;;;;;;;23.00;13.05;;;;;;;;;;7382394;19;19994;-69
2022/10/13 04:01:49;;;;;;;24.77;12.90;;;;;;;;;;7384427;19;20002;-68
2022/10/13 04:04:15;;;;;;;23.20;12.60;;;;;;;;;;7386902;19;20453;-68
2022/10/13 04:06:40;;;;;;;25.30;12.73;;;;;;;;;;7389291;19;19998;-69
2022/10/13 04:09:06;;;;;;;31.33;13.38;;;;;;;;;;7386626;19;19999;-68
2022/10/13 04:11:35;;;;;;;33.40;14.32;;;;;;;;;;7383704;19;20459;-68
2022/10/13 04:14:00;;;;;;;25.90;13.73;;;;;;;;;;7386764;19;20006;-68
2022/10/13 04:16:28;;;;;;;24.75;12.27;;;;;;;;;;7387928;19;20371;-68
2022/10/13 04:18:59;;;;;;;23.60;11.98;;;;;;;;;;7386161;19;20379;-68
2022/10/13 04:21:25;;;;;;;20.02;11.52;;;;;;;;;;7382150;19;20006;-69
2022/10/13 04:24:01;;;;;;;19.92;10.98;;;;;;;;;;7386140;19;19998;-69
2022/10/13 04:26:30;;;;;;;20.27;11.95;;;;;;;;;;7386171;19;20026;-67
2022/10/13 04:28:55;;;;;;;27.20;12.55;;;;;;;;;;7385067;19;20021;-69
2022/10/13 04:31:22;;;;;;;34.40;13.27;;;;;;;;;;7385613;19;19994;-69
2022/10/13 04:33:48;;;;;;;32.60;13.65;;;;;;;;;;7389626;19;20003;-68
2022/10/13 04:36:14;;;;;;;25.73;13.60;;;;;;;;;;7387208;19;20673;-68
2022/10/13 04:38:41;;;;;;;112.20;15.00;;;;;;;;;;7395541;19;20002;-68
2022/10/13 04:41:08;;;;;;;77.68;13.63;;;;;;;;;;7393432;19;20349;-68
2022/10/13 04:43:34;;;;;;;51.63;14.43;;;;;;;;;;7397257;19;19999;-68
2022/10/13 04:46:22;;;;;;;136.20;17.08;;;;;;;;;;7395024;19;20005;-68
2022/10/13 04:48:48;;;;;;;70.80;15.38;;;;;;;;;;7396415;19;20362;-69
2022/10/13 04:51:17;;;;;;;33.92;14.98;;;;;;;;;;7391654;19;20085;-68
2022/10/13 04:53:43;;;;;;;85.10;15.32;;;;;;;;;;7392191;19;20014;-68
2022/10/13 04:56:17;;;;;;;69.30;14.55;;;;;;;;;;7391411;19;20003;-68
2022/10/13 04:58:44;;;;;;;34.45;14.23;;;;;;;;;;7391492;19;20018;-68
2022/10/13 05:01:22;;;;;;;105.80;17.20;;;;;;;;;;7383356;19;20006;-69
2022/10/13 05:03:56;;;;;;;165.48;16.60;;;;;;;;;;7392456;19;20018;-68
2022/10/13 05:06:24;;;;;;;35.45;15.52;;;;;;;;;;7393849;19;20015;-67
2022/10/13 05:08:50;;;;;;;49.75;14.95;;;;;;;;;;7394883;19;19991;-70
2022/10/13 05:11:16;;;;;;;77.63;15.20;;;;;;;;;;7391446;19;20106;-69
2022/10/13 05:13:41;;;;;;;47.40;13.82;;;;;;;;;;7394029;19;20015;-68
2022/10/13 05:16:08;;;;;;;73.82;14.55;;;;;;;;;;7392635;19;20370;-68
2022/10/13 05:18:34;;;;;;;87.43;15.50;;;;;;;;;;7379864;19;20022;-68
2022/10/13 05:21:12;;;;;;;75.07;15.43;;;;;;;;;;7362430;19;20003;-69
2022/10/13 05:23:38;;;;;;;133.32;15.95;;;;;;;;;;7396262;19;20014;-69
2022/10/13 05:26:10;;;;;;;88.53;15.38;;;;;;;;;;7394572;19;20015;-68
2022/10/13 05:28:37;;;;;;;44.53;14.13;;;;;;;;;;7395421;19;20014;-69
2022/10/13 05:31:11;;;;;;;77.20;15.27;;;;;;;;;;7389856;19;20070;-67
2022/10/13 05:33:37;;;;;;;73.82;17.42;;;;;;;;;;7396778;19;20135;-69
2022/10/13 05:36:15;;;;;;;61.78;15.30;;;;;;;;;;7395170;19;20003;-67
2022/10/13 05:38:41;;;;;;;161.57;16.60;;;;;;;;;;7393010;19;20003;-69
2022/10/13 05:41:11;;;;;;;49.00;14.73;;;;;;;;;;7390149;19;20496;-69
2022/10/13 05:43:38;;;;;;;58.33;14.88;;;;;;;;;;7395229;19;20086;-67
2022/10/13 05:46:04;;;;;;;64.80;15.35;;;;;;;;;;7394863;19;20069;-68
2022/10/13 05:48:29;;;;;;;26.80;13.98;;;;;;;;;;7393018;19;20006;-68
2022/10/13 05:50:58;;;;;;;47.65;14.70;;;;;;;;;;7394306;19;20340;-67
2022/10/13 05:53:26;;;;;;;188.55;18.05;;;;;;;;;;7395731;19;20113;-68
2022/10/13 05:55:53;;;;;;;41.20;15.07;;;;;;;;;;7394785;19;20605;-68
2022/10/13 05:58:18;;;;;;;35.90;14.15;;;;;;;;;;7393044;19;20019;-68
2022/10/13 06:00:44;;;;;;;34.53;14.45;;;;;;;;;;7394821;19;20476;-69
2022/10/13 06:03:14;;;;;;;26.67;13.80;;;;;;;;;;7393715;19;20463;-68
2022/10/13 06:05:42;;;;;;;33.88;14.75;;;;;;;;;;7396050;19;20025;-68
2022/10/13 06:08:08;;;;;;;25.23;13.75;;;;;;;;;;7390800;19;19998;-68
2022/10/13 06:10:33;;;;;;;63.92;14.18;;;;;;;;;;7391284;19;20005;-68
2022/10/13 06:12:58;;;;;;;35.88;12.80;;;;;;;;;;7393304;19;20077;-68
2022/10/13 06:15:24;;;;;;;26.48;12.27;;;;;;;;;;7394530;19;19999;-68
2022/10/13 06:17:49;;;;;;;22.40;12.15;;;;;;;;;;7394233;19;19991;-68
2022/10/13 06:20:15;;;;;;;26.52;11.30;;;;;;;;;;7390743;19;20031;-69
2022/10/13 06:22:40;;;;;;;26.30;11.70;;;;;;;;;;7392365;19;20614;-68
2022/10/13 06:25:06;;;;;;;25.25;10.68;;;;;;;;;;7390722;19;20011;-68
2022/10/13 06:27:32;;;;;;;26.20;11.18;;;;;;;;;;7394138;19;20006;-69
2022/10/13 06:29:57;;;;;;;27.55;11.65;;;;;;;;;;7395284;19;20007;-69
2022/10/13 06:32:23;;;;;;;23.42;11.25;;;;;;;;;;7393622;19;19998;-69
2022/10/13 06:34:48;;;;;;;18.15;11.32;;;;;;;;;;7393037;19;20071;-67
2022/10/13 06:37:13;;;;;;;20.65;10.15;;;;;;;;;;7390555;19;20103;-69
2022/10/13 06:39:39;;;;;;;23.10;11.07;;;;;;;;;;7394729;19;20002;-69
2022/10/13 06:42:04;;;;;;;18.13;11.02;;;;;;;;;;7390200;19;19995;-69
2022/10/13 06:44:31;;;;;;;30.08;16.25;;;;;;;;;;7390699;19;20022;-68
2022/10/13 06:46:56;;;;;;;23.17;12.10;;;;;;;;;;7391490;19;20477;-68
2022/10/13 06:49:22;;;;;;;20.70;11.30;;;;;;;;;;7390313;19;20006;-67
2022/10/13 06:51:48;;;;;;;20.83;10.88;;;;;;;;;;7389465;19;20002;-67
2022/10/13 06:54:13;;;;;;;21.25;10.32;;;;;;;;;;7392694;19;20003;-70
2022/10/13 06:56:39;;;;;;;20.35;11.02;;;;;;;;;;7391274;19;20484;-70
2022/10/13 06:59:04;;;;;;;18.92;10.30;;;;;;;;;;7392247;19;20074;-69
2022/10/13 07:01:29;;;;;;;23.10;10.70;;;;;;;;;;7389269;19;20058;-69
2022/10/13 07:03:54;;;;;;;23.80;11.82;;;;;;;;;;7390653;19;20535;-70
2022/10/13 07:06:20;;;;;;;26.83;12.32;;;;;;;;;;7390898;19;20006;-68
2022/10/13 07:08:45;;;;;;;23.65;11.98;;;;;;;;;;7390338;19;20033;-68
2022/10/13 07:11:13;;;;;;;21.98;12.30;;;;;;;;;;7390076;19;20304;-68
2022/10/13 07:13:39;;;;;;;23.05;11.88;;;;;;;;;;7393687;19;20373;-69
2022/10/13 07:16:05;;;;;;;21.70;11.27;;;;;;;;;;7390684;19;20006;-68
2022/10/13 07:18:32;;;;;;;21.63;12.50;;;;;;;;;;7389929;19;20006;-68
2022/10/13 07:20:58;;;;;;;20.83;12.88;;;;;;;;;;7391713;19;20495;-68
2022/10/13 07:23:24;;;;;;;21.35;11.35;;;;;;;;;;7391031;19;20006;-69
2022/10/13 07:25:50;;;;;;;23.80;12.55;;;;;;;;;;7393798;19;20255;-69
2022/10/13 07:28:15;;;;;;;22.25;11.30;;;;;;;;;;7390225;19;20010;-68
2022/10/13 07:30:41;;;;;;;23.33;12.02;;;;;;;;;;7385828;19;20035;-69
2022/10/13 07:33:06;;;;;;;27.00;11.60;;;;;;;;;;7388172;19;20003;-69
2022/10/13 07:35:32;;;;;;;23.73;12.43;;;;;;;;;;7387294;19;20465;-67
2022/10/13 07:37:57;;;;;;;25.33;12.98;;;;;;;;;;7390843;19;19994;-69
2022/10/13 07:40:25;;;;;;;26.40;13.23;;;;;;;;;;7389383;19;20023;-68
2022/10/13 07:42:51;;;;;;;27.17;13.60;;;;;;;;;;7365587;19;20023;-69
2022/10/13 07:45:16;;;;;;;29.30;13.40;;;;;;;;;;7389482;19;20034;-67
2022/10/13 07:47:41;;;;;;;31.20;13.90;;;;;;;;;;7391745;19;19999;-67
2022/10/13 07:50:08;;;;;;;27.17;13.82;;;;;;;;;;7388783;19;20026;-70
2022/10/13 07:52:36;;;;;;;23.35;14.18;;;;;;;;;;7388451;19;20007;-68
2022/10/13 07:55:01;;;;;;;30.27;13.85;;;;;;;;;;7388775;19;20006;-68
2022/10/13 07:57:27;;;;;;;25.58;13.23;;;;;;;;;;7390327;19;20403;-70
2022/10/13 07:59:52;;;;;;;28.13;13.93;;;;;;;;;;7388212;19;20299;-68
2022/10/13 08:02:18;;;;;;;25.02;13.02;;;;;;;;;;7385918;19;20019;-68
2022/10/13 08:04:43;;;;;;;29.55;13.23;;;;;;;;;;7389412;19;19995;-69
2022/10/13 08:07:09;;;;;;;26.38;13.88;;;;;;;;;;7389780;19;20345;-70
2022/10/13 08:09:34;;;;;;;30.95;14.60;;;;;;;;;;7391009;19;20009;-70
2022/10/13 08:11:59;;;;;;;31.30;14.05;;;;;;;;;;7381895;19;20398;-68
2022/10/13 08:14:25;;;;;;;36.20;14.88;;;;;;;;;;7388289;19;20006;-69
2022/10/13 08:16:50;;;;;;;29.23;14.48;;;;;;;;;;7386350;19;20337;-69
2022/10/13 08:19:16;;;;;;;34.78;14.88;;;;;;;;;;7384835;19;20509;-69
2022/10/13 08:21:42;;;;;;;28.92;14.55;;;;;;;;;;7388158;19;20070;-69
2022/10/13 08:24:12;;;;;;;36.40;15.38;;;;;;;;;;7388163;19;20002;-69
2022/10/13 08:26:38;;;;;;;32.75;14.73;;;;;;;;;;7390190;19;20363;-69
2022/10/13 08:29:03;;;;;;;37.75;15.15;;;;;;;;;;7388439;19;20002;-70
2022/10/13 08:31:32;;;;;;;27.27;14.60;;;;;;;;;;7387800;19;20003;-70
2022/10/13 08:33:57;;;;;;;30.20;14.55;;;;;;;;;;7389232;19;20058;-69
2022/10/13 08:36:23;;;;;;;36.50;15.55;;;;;;;;;;7388259;19;20015;-69
2022/10/13 08:38:49;;;;;;;34.95;14.82;;;;;;;;;;7388944;19;19999;-69
2022/10/13 08:41:38;;;;;;;32.65;14.57;;;;;;;;;;7384986;19;20046;-68
2022/10/13 08:44:26;;;;;;;31.60;14.05;;;;;;;;;;7388822;19;20006;-69
2022/10/13 08:47:12;;;;;;;35.35;15.43;;;;;;;;;;7389806;19;20023;-69
2022/10/13 08:49:39;;;;;;;36.63;16.08;;;;;;;;;;7390767;19;20007;-69
2022/10/13 08:52:05;;;;;;;34.22;15.98;;;;;;;;;;7389250;19;20014;-67
2022/10/13 08:54:32;;;;;;;32.80;15.90;;;;;;;;;;7386833;19;20006;-68
2022/10/13 08:56:57;;;;;;;39.03;15.57;;;;;;;;;;7386374;19;20007;-68
2022/10/13 08:59:23;;;;;;;36.42;14.90;;;;;;;;;;7389656;19;20046;-69
2022/10/13 09:01:53;;;;;;;38.10;15.80;;;;;;;;;;7386831;19;20034;-69
2022/10/13 09:04:30;;;;;;;33.25;15.55;;;;;;;;;;7388745;19;20009;-68
2022/10/13 09:07:08;;;;;;;37.75;17.88;;;;;;;;;;7388342;19;20356;-68
2022/10/13 09:09:33;;;;;;;37.50;16.52;;;;;;;;;;7390039;19;20002;-68
2022/10/13 09:11:59;;;;;;;35.22;16.02;;;;;;;;;;7384570;19;19995;-68
2022/10/13 09:14:28;;;;;;;42.58;16.80;;;;;;;;;;7388140;19;20456;-68
2022/10/13 09:16:56;;;;;;;37.15;16.52;;;;;;;;;;7387707;19;19999;-68
2022/10/13 09:19:32;;;;;;;29.05;14.82;;;;;;;;;;7389237;19;19999;-68
2022/10/13 09:22:27;;;;;;;29.98;15.93;;;;;;;;;;7386002;19;20006;-70
2022/10/13 09:25:05;;;;;;;33.58;15.55;;;;;;;;;;7394779;19;20005;-67
2022/10/13 09:27:45;;;;;;;37.30;16.45;;;;;;;;;;7395506;19;20050;-69
2022/10/13 09:30:41;;;;;;;28.97;14.70;;;;;;;;;;7393028;19;20007;-69
2022/10/13 09:33:17;;;;;;;35.95;15.63;;;;;;;;;;7394073;19;20323;-69
2022/10/13 09:35:46;;;;;;;37.03;16.92;;;;;;;;;;7397545;19;20006;-69
2022/10/13 09:38:15;;;;;;;44.47;16.55;;;;;;;;;;7390827;19;19998;-68
2022/10/13 09:40:42;;;;;;;33.97;15.82;;;;;;;;;;7393634;19;20009;-69
2022/10/13 09:43:46;;;;;;;41.13;17.55;;;;;;;;;;7395643;19;19999;-69
2022/10/13 09:46:23;;;;;;;36.75;16.38;;;;;;;;;;7393376;19;20002;-69
2022/10/13 09:48:55;;;;;;;36.88;16.20;;;;;;;;;;7393845;19;20011;-69
2022/10/13 09:51:30;;;;;;;38.08;15.70;;;;;;;;;;7392407;19;20353;-69
2022/10/13 09:53:55;;;;;;;39.08;16.60;;;;;;;;;;7393224;19;20017;-68
2022/10/13 09:56:59;;;;;;;42.35;17.70;;;;;;;;;;7394179;19;20006;-68
2022/10/13 09:59:32;;;;;;;40.88;16.40;;;;;;;;;;7390110;19;19999;-69
2022/10/13 10:02:02;;;;;;;37.42;18.27;;;;;;;;;;7391481;19;20007;-67
2022/10/13 10:04:36;;;;;;;46.97;17.73;;;;;;;;;;7392168;19;20013;-68
2022/10/13 10:07:09;;;;;;;42.75;17.52;;;;;;;;;;7389326;19;20504;-68
2022/10/13 10:09:42;;;;;;;35.95;17.30;;;;;;;;;;7389015;19;20034;-68
2022/10/13 10:12:14;;;;;;;45.00;18.23;;;;;;;;;;7389462;19;20004;-70
2022/10/13 10:14:39;;;;;;;40.28;17.13;;;;;;;;;;7390498;19;20074;-68
2022/10/13 10:17:34;;;;;;;33.38;16.02;;;;;;;;;;7393776;19;20015;-69
2022/10/13 10:20:23;;;;;;;34.83;16.15;;;;;;;;;;7389374;19;20002;-68
2022/10/13 10:23:03;;;;;;;43.40;15.30;;;;;;;;;;7392005;19;19998;-69
2022/10/13 10:25:38;;;;;;;30.95;14.50;;;;;;;;;;7394443;19;20003;-70
2022/10/13 10:28:07;;;;;;;43.03;16.25;;;;;;;;;;7390404;19;20348;-68
2022/10/13 10:30:41;;;;;;;34.78;16.30;;;;;;;;;;7391757;19;20036;-69
2022/10/13 10:33:16;;;;;;;36.17;14.68;;;;;;;;;;7392543;19;20070;-68
2022/10/13 10:35:43;;;;;;;33.20;15.82;;;;;;;;;;7391403;19;20002;-68
2022/10/13 10:38:31;;;;;;;40.85;16.52;;;;;;;;;;7388185;19;20386;-69
2022/10/13 10:41:22;;;;;;;30.08;14.80;;;;;;;;;;7391265;19;20374;-68
2022/10/13 10:43:54;;;;;;;38.55;15.95;;;;;;;;;;7394868;19;19990;-68
2022/10/13 10:46:27;;;;;;;37.85;16.08;;;;;;;;;;7391655;19;20486;-69
2022/10/13 10:49:11;;;;;;;36.08;16.02;;;;;;;;;;7392095;19;20003;-69
2022/10/13 10:51:38;;;;;;;42.95;17.38;;;;;;;;;;7388760;19;20447;-68
2022/10/13 10:54:36;;;;;;;40.70;17.02;;;;;;;;;;7390981;19;20002;-69
2022/10/13 10:57:10;;;;;;;36.35;15.57;;;;;;;;;;7391881;19;19999;-68
2022/10/13 11:00:00;;;;;;;35.63;19.25;;;;;;;;;;7393545;19;20016;-70
2022/10/13 11:03:03;;;;;;;34.50;15.90;;;;;;;;;;7366755;19;20030;-69
2022/10/13 11:06:04;;;;;;;34.83;15.68;;;;;;;;;;7389321;19;20036;-69
2022/10/13 11:08:41;;;;;;;32.17;15.95;;;;;;;;;;7386426;19;20018;-69
2022/10/13 11:11:21;;;;;;;35.63;16.13;;;;;;;;;;7389623;19;20516;-69
2022/10/13 11:14:04;;;;;;;33.40;16.07;;;;;;;;;;7393023;19;19990;-69
2022/10/13 11:16:34;;;;;;;34.15;15.85;;;;;;;;;;7392113;19;19998;-69
2022/10/13 11:19:24;;;;;;;43.13;16.52;;;;;;;;;;7392287;19;20011;-69
2022/10/13 11:21:52;;;;;;;41.10;16.55;;;;;;;;;;7391294;19;19998;-68
2022/10/13 11:24:37;;;;;;;34.85;16.60;;;;;;;;;;7389532;19;20002;-70
2022/10/13 11:27:15;;;;;;;36.22;15.18;;;;;;;;;;7391982;19;20066;-68
2022/10/13 11:29:47;;;;;;;36.17;16.27;;;;;;;;;;7392848;19;19998;-69
2022/10/13 11:32:31;;;;;;;38.00;16.80;;;;;;;;;;7391539;19;20013;-69
2022/10/13 11:35:12;;;;;;;36.72;16.35;;;;;;;;;;7391168;19;20003;-68
2022/10/13 11:37:46;;;;;;;39.35;16.50;;;;;;;;;;7392245;19;20042;-69
2022/10/13 11:41:02;;;;;;;37.90;17.23;;;;;;;;;;7390040;19;20003;-68
2022/10/13 11:43:35;;;;;;;30.02;15.57;;;;;;;;;;7387238;19;20002;-68
2022/10/13 11:46:19;;;;;;;29.45;15.32;;;;;;;;;;7392547;19;20417;-69
2022/10/13 11:49:33;;;;;;;35.63;16.85;;;;;;;;;;7391721;19;20022;-70
2022/10/13 11:52:16;;;;;;;33.53;15.82;;;;;;;;;;7387381;19;20062;-70
2022/10/13 11:54:50;;;;;;;36.13;16.60;;;;;;;;;;7391638;19;20013;-69
2022/10/13 11:57:26;;;;;;;38.10;16.90;;;;;;;;;;7389660;19;20002;-69
2022/10/13 11:59:54;;;;;;;30.50;16.02;;;;;;;;;;7388965;19;20027;-69
2022/10/13 12:02:24;;;;;;;34.95;15.75;;;;;;;;;;7387844;19;20007;-70
2022/10/13 12:05:06;;;;;;;32.75;16.15;;;;;;;;;;7390369;19;20019;-70
2022/10/13 12:07:38;;;;;;;28.13;13.93;;;;;;;;;;7391555;19;19998;-70
2022/10/13 12:10:08;;;;;;;31.67;15.10;;;;;;;;;;7388759;19;20010;-69
2022/10/13 12:12:34;;;;;;;34.35;16.20;;;;;;;;;;7387319;19;20003;-70
2022/10/13 12:14:59;;;;;;;32.47;14.90;;;;;;;;;;7390022;19;20334;-69
2022/10/13 12:17:25;;;;;;;31.20;14.90;;;;;;;;;;7390619;19;20010;-69
2022/10/13 12:19:55;;;;;;;25.48;15.18;;;;;;;;;;7391621;19;20434;-69
2022/10/13 12:22:20;;;;;;;24.35;13.45;;;;;;;;;;7386291;19;20080;-69
2022/10/13 12:25:05;;;;;;;28.13;15.32;;;;;;;;;;7389833;19;19999;-69
2022/10/13 12:27:41;;;;;;;26.08;13.93;;;;;;;;;;7387033;19;20472;-70
2022/10/13 12:30:29;;;;;;;24.33;13.75;;;;;;;;;;7388268;19;20003;-69
2022/10/13 12:32:57;;;;;;;25.38;12.95;;;;;;;;;;7388710;19;20033;-69
2022/10/13 12:35:27;;;;;;;22.23;12.60;;;;;;;;;;7390520;19;20007;-69
2022/10/13 12:37:54;;;;;;;23.30;12.98;;;;;;;;;;7384397;19;20027;-69
2022/10/13 12:40:20;;;;;;;24.58;13.30;;;;;;;;;;7388235;19;20472;-69
2022/10/13 12:42:47;;;;;;;24.35;12.68;;;;;;;;;;7388574;19;20019;-69
2022/10/13 12:45:18;;;;;;;25.48;13.55;;;;;;;;;;7389463;19;20348;-69
2022/10/13 12:47:43;;;;;;;25.83;13.90;;;;;;;;;;7390580;19;20007;-69
2022/10/13 12:50:24;;;;;;;29.07;13.87;;;;;;;;;;7387125;19;20009;-68
2022/10/13 12:52:52;;;;;;;22.45;12.95;;;;;;;;;;7387145;19;20256;-70
2022/10/13 12:55:19;;;;;;;22.95;12.48;;;;;;;;;;7390017;19;20479;-69
2022/10/13 12:57:48;;;;;;;21.55;11.18;;;;;;;;;;7389664;19;20003;-69
2022/10/13 13:00:25;;;;;;;22.73;11.75;;;;;;;;;;7395596;19;20002;-68
2022/10/13 13:02:56;;;;;;;21.63;12.05;;;;;;;;;;7382505;19;20737;-67
2022/10/13 13:05:39;;;;;;;21.08;12.40;;;;;;;;;;7392396;19;20560;-68
2022/10/13 13:08:22;;;;;;;20.63;11.77;;;;;;;;;;7395318;19;19998;-68
2022/10/13 13:11:02;;;;;;;18.35;11.73;;;;;;;;;;7394606;19;20040;-68
2022/10/13 13:13:28;;;;;;;21.50;11.25;;;;;;;;;;7393957;19;20018;-68
2022/10/13 13:16:12;;;;;;;23.23;11.25;;;;;;;;;;7394194;19;20456;-67
2022/10/13 13:18:42;;;;;;;19.33;10.52;;;;;;;;;;7391679;19;20012;-68
2022/10/13 13:21:11;;;;;;;21.50;10.32;;;;;;;;;;7395493;19;20011;-68
2022/10/13 13:23:37;;;;;;;18.20;10.50;;;;;;;;;;7396242;19;20016;-67
2022/10/13 13:26:05;;;;;;;16.85;10.23;;;;;;;;;;7397034;19;20460;-69
2022/10/13 13:28:31;;;;;;;16.42;9.68;;;;;;;;;;7394578;19;20392;-69
2022/10/13 13:30:57;;;;;;;19.33;10.13;;;;;;;;;;7392206;19;19999;-70
2022/10/13 13:33:23;;;;;;;20.13;10.40;;;;;;;;;;7392004;19;20033;-69
2022/10/13 13:35:48;;;;;;;20.65;10.65;;;;;;;;;;7397552;19;19998;-68
2022/10/13 13:38:14;;;;;;;17.38;10.55;;;;;;;;;;7390826;19;20066;-70
2022/10/13 13:40:39;;;;;;;19.35;10.27;;;;;;;;;;7393313;19;19999;-69
2022/10/13 13:43:07;;;;;;;16.95;9.65;;;;;;;;;;7369115;19;20002;-69
2022/10/13 13:45:33;;;;;;;18.33;10.23;;;;;;;;;;7396859;19;20027;-69
2022/10/13 13:47:59;;;;;;;20.10;10.50;;;;;;;;;;7391895;19;20030;-68
2022/10/13 13:50:30;;;;;;;18.40;10.05;;;;;;;;;;7394760;19;20009;-68
2022/10/13 13:52:56;;;;;;;15.57;10.10;;;;;;;;;;7394726;19;20471;-70
2022/10/13 13:55:22;;;;;;;19.92;10.45;;;;;;;;;;7396020;19;20013;-68
2022/10/13 13:57:47;;;;;;;17.17;9.68;;;;;;;;;;7395024;19;19991;-68
2022/10/13 14:00:14;;;;;;;23.90;10.75;;;;;;;;;;7392684;19;20006;-68
2022/10/13 14:02:41;;;;;;;19.13;10.10;;;;;;;;;;7388180;19;20013;-68
2022/10/13 14:05:07;;;;;;;16.83;10.13;;;;;;;;;;7392170;19;20033;-67
2022/10/13 14:07:32;;;;;;;22.65;12.05;;;;;;;;;;7389476;19;20517;-69
2022/10/13 14:09:57;;;;;;;18.38;12.00;;;;;;;;;;7389181;19;20002;-69
2022/10/13 14:12:23;;;;;;;22.65;12.00;;;;;;;;;;7391488;19;20008;-69
2022/10/13 14:14:49;;;;;;;23.23;12.63;;;;;;;;;;7393743;19;20006;-69
2022/10/13 14:17:14;;;;;;;23.83;12.35;;;;;;;;;;7394120;19;20023;-69
2022/10/13 14:19:41;;;;;;;20.85;11.90;;;;;;;;;;7392386;19;19990;-69
2022/10/13 14:22:06;;;;;;;20.60;11.35;;;;;;;;;;7389736;19;20550;-69
2022/10/13 14:24:32;;;;;;;24.77;12.25;;;;;;;;;;7393471;19;20030;-69
2022/10/13 14:26:57;;;;;;;20.27;11.95;;;;;;;;;;7394203;19;19997;-69
2022/10/13 14:29:23;;;;;;;21.17;11.50;;;;;;;;;;7391778;19;20077;-68
2022/10/13 14:31:49;;;;;;;20.80;11.93;;;;;;;;;;7388614;19;20005;-68
2022/10/13 14:34:14;;;;;;;21.98;12.27;;;;;;;;;;7385231;19;19998;-70
2022/10/13 14:36:39;;;;;;;30.77;12.35;;;;;;;;;;7386852;19;19995;-70